Stevenson, Connecticut
Current Conditions -  °F | °C
As of 3:15 AM on Monday 24 Nov 2014 (Local Time) from KOXC Reporting Station
Overcast Overcast  
Wind Chill: 12°   Ceiling: 500
Heat Index: 12°   Visibility: 4mi
Dew Point:   Wind: 14mph
Humidity: 82%   Direction: 130°SE
Pressure: 29.9"   Gusts: 20mph
Location:  41.38°N, 73.18°W
Report Text: KOXC 240815Z 13012G17KT 4SM OVC005 12/09 A2990 RMK AO1 P0003
Loading
Personal Weather Stations






























Interactive Weather Map New forecast layout! Learn more

10-Day Weather Forecast

Advertisements
Track Severe Weather on mobile